createdAt,value
2022-09-21T00:00:27.014Z,64.56
2022-09-21T00:02:57.230Z,64.13
2022-09-21T00:05:24.574Z,64.45
2022-09-21T00:08:11.370Z,64.02
2022-09-21T00:10:37.967Z,64.72
2022-09-21T00:13:05.724Z,65.01
2022-09-21T00:15:32.797Z,64.92
2022-09-21T00:18:00.289Z,64.04
2022-09-21T00:20:27.941Z,64.20
2022-09-21T00:23:31.514Z,64.61
2022-09-21T00:29:14.796Z,64.12
2022-09-21T00:31:41.585Z,63.91
2022-09-21T00:34:08.201Z,64.14
2022-09-21T00:36:35.298Z,63.75
2022-09-21T00:39:02.254Z,63.48
2022-09-21T00:41:31.337Z,63.50
2022-09-21T00:44:22.369Z,63.25
2022-09-21T00:46:51.376Z,62.85
2022-09-21T00:49:18.502Z,62.70
2022-09-21T00:51:46.776Z,62.49
2022-09-21T00:54:20.031Z,62.21
2022-09-21T00:57:08.813Z,62.11
2022-09-21T00:59:38.348Z,62.23
2022-09-21T01:02:05.783Z,62.02
2022-09-21T01:04:32.816Z,61.94
2022-09-21T01:07:05.648Z,62.19
2022-09-21T01:09:32.819Z,62.21
2022-09-21T01:16:30.698Z,63.25
2022-09-21T01:19:23.665Z,63.90
2022-09-21T01:22:03.075Z,64.44
2022-09-21T01:24:42.269Z,64.27
2022-09-21T01:27:26.998Z,63.82
2022-09-21T01:30:10.697Z,64.13
2022-09-21T01:33:14.604Z,63.93
2022-09-21T01:35:46.902Z,64.00
2022-09-21T01:38:32.085Z,64.19
2022-09-21T01:41:03.220Z,64.05
2022-09-21T01:43:37.704Z,63.68
2022-09-21T01:46:07.848Z,63.29
2022-09-21T01:52:26.131Z,63.32
2022-09-21T01:54:58.115Z,63.28
2022-09-21T01:57:39.099Z,63.46
2022-09-21T02:00:07.112Z,63.50
2022-09-21T02:02:39.872Z,64.02
2022-09-21T02:05:07.604Z,64.30
2022-09-21T02:07:53.769Z,64.45
2022-09-21T02:10:26.523Z,64.54
2022-09-21T02:13:01.226Z,64.62
2022-09-21T02:16:10.823Z,64.39
2022-09-21T02:18:40.824Z,64.22
2022-09-21T02:21:45.674Z,64.12
2022-09-21T02:27:36.707Z,64.12
2022-09-21T02:30:06.156Z,64.47
2022-09-21T02:33:03.834Z,64.51
2022-09-21T02:36:02.644Z,64.19
2022-09-21T02:38:53.153Z,63.74
2022-09-21T02:41:29.745Z,63.70
2022-09-21T02:44:18.848Z,63.35
2022-09-21T02:46:59.253Z,63.58
2022-09-21T02:49:34.159Z,63.13
2022-09-21T02:52:07.812Z,63.10
2022-09-21T02:54:36.117Z,62.96
2022-09-21T02:57:45.593Z,62.90
2022-09-21T03:00:37.475Z,62.82
2022-09-21T03:03:22.109Z,63.29
2022-09-21T03:05:51.386Z,63.35
2022-09-21T03:08:18.488Z,63.00
2022-09-21T03:10:46.219Z,63.01
2022-09-21T03:13:13.343Z,63.88
2022-09-21T03:16:04.259Z,63.07
2022-09-21T03:18:31.456Z,63.45
2022-09-21T03:20:58.046Z,63.24
2022-09-21T03:23:25.275Z,63.10
2022-09-21T03:25:52.577Z,63.13
2022-09-21T03:28:19.992Z,63.09
2022-09-21T03:31:14.723Z,63.13
2022-09-21T03:34:28.832Z,63.08
2022-09-21T03:36:55.614Z,63.38
2022-09-21T03:39:22.335Z,63.69
2022-09-21T03:41:48.884Z,63.92
2022-09-21T03:44:17.733Z,63.39
2022-09-21T03:46:44.588Z,63.22
2022-09-21T03:49:36.044Z,63.45
2022-09-21T03:52:03.656Z,63.17
2022-09-21T03:54:30.206Z,62.73
2022-09-21T03:56:56.763Z,62.45
2022-09-21T03:59:23.479Z,62.29
2022-09-21T04:01:50.177Z,62.27
2022-09-21T04:04:16.971Z,62.13
2022-09-21T04:10:33.399Z,62.25
2022-09-21T04:13:01.490Z,62.37
2022-09-21T04:15:29.341Z,62.45
2022-09-21T04:17:56.174Z,62.41
2022-09-21T04:20:23.264Z,62.47
2022-09-21T04:22:51.768Z,61.99
2022-09-21T04:25:18.676Z,61.83
2022-09-21T04:27:45.617Z,61.69
2022-09-21T04:30:14.260Z,61.97
2022-09-21T04:32:40.993Z,61.69
2022-09-21T04:35:08.114Z,62.03
2022-09-21T04:37:34.864Z,61.91
2022-09-21T04:40:01.759Z,62.17
2022-09-21T04:42:28.472Z,62.07
2022-09-21T04:44:56.169Z,62.26
2022-09-21T04:47:25.223Z,62.61
2022-09-21T04:49:52.994Z,62.57
2022-09-21T04:52:20.013Z,62.73
2022-09-21T04:54:47.326Z,62.89
2022-09-21T04:57:15.155Z,62.87
2022-09-21T04:59:41.742Z,62.74
2022-09-21T05:02:08.885Z,62.35
2022-09-21T05:04:35.655Z,62.35
2022-09-21T05:07:02.241Z,62.58
2022-09-21T05:10:02.741Z,62.86
2022-09-21T05:12:30.717Z,62.62
2022-09-21T05:14:57.294Z,62.38
2022-09-21T05:17:24.210Z,61.93
2022-09-21T05:19:51.732Z,62.13
2022-09-21T05:22:18.404Z,62.32
2022-09-21T05:25:35.695Z,62.40
2022-09-21T05:28:37.735Z,62.39
2022-09-21T05:31:32.541Z,62.06
2022-09-21T05:34:23.951Z,62.34
2022-09-21T05:37:02.662Z,62.51
2022-09-21T05:39:29.714Z,62.65
2022-09-21T05:41:56.823Z,62.76
2022-09-21T05:44:23.792Z,62.14
2022-09-21T05:46:59.212Z,61.80
2022-09-21T05:49:30.739Z,61.85
2022-09-21T05:52:25.269Z,61.51
2022-09-21T05:55:33.612Z,61.13
2022-09-21T05:58:14.534Z,60.70
2022-09-21T06:01:18.757Z,60.71
2022-09-21T06:03:48.599Z,60.70
2022-09-21T06:06:15.264Z,60.23
2022-09-21T06:08:41.800Z,60.06
2022-09-21T06:11:08.434Z,59.92
2022-09-21T06:13:35.018Z,59.89
2022-09-21T06:16:05.149Z,59.51
2022-09-21T06:18:31.749Z,59.56
2022-09-21T06:20:58.324Z,59.42
2022-09-21T06:23:24.876Z,59.06
2022-09-21T06:25:57.601Z,58.83
2022-09-21T06:28:25.909Z,58.73
2022-09-21T06:30:54.292Z,58.64
2022-09-21T06:33:23.541Z,58.40
2022-09-21T06:35:55.428Z,58.03
2022-09-21T06:38:22.792Z,58.19
2022-09-21T06:40:50.468Z,58.18
2022-09-21T06:43:17.482Z,58.41
2022-09-21T06:45:44.307Z,58.32
2022-09-21T06:48:10.864Z,58.30
2022-09-21T06:50:37.381Z,57.76
2022-09-21T06:53:04.128Z,57.97
2022-09-21T06:55:31.680Z,57.70
2022-09-21T06:58:03.002Z,57.30
2022-09-21T07:00:30.477Z,56.91
2022-09-21T07:02:57.110Z,56.52
2022-09-21T07:05:23.870Z,56.38
2022-09-21T07:07:53.748Z,55.66
2022-09-21T07:10:20.879Z,55.19
2022-09-21T07:12:52.026Z,55.58
2022-09-21T07:15:21.911Z,57.16
2022-09-21T07:18:05.526Z,55.16
2022-09-21T07:20:32.405Z,54.75
2022-09-21T07:22:58.985Z,54.00
2022-09-21T07:25:25.625Z,52.88
2022-09-21T07:27:52.238Z,53.45
2022-09-21T07:30:18.903Z,53.78
2022-09-21T07:32:48.238Z,54.36
2022-09-21T07:35:14.931Z,54.07
2022-09-21T07:37:41.570Z,54.56
2022-09-21T07:40:08.672Z,54.11
2022-09-21T07:42:35.362Z,54.30
2022-09-21T07:45:24.508Z,54.17
2022-09-21T07:47:54.209Z,53.96
2022-09-21T07:50:21.966Z,52.58
2022-09-21T07:52:48.609Z,52.53
2022-09-21T07:55:15.954Z,53.02
2022-09-21T07:58:01.080Z,52.32
2022-09-21T08:01:17.923Z,51.93
2022-09-21T08:04:06.128Z,52.77
2022-09-21T08:06:35.231Z,52.90
2022-09-21T08:09:03.445Z,52.51
2022-09-21T08:11:31.507Z,51.96
2022-09-21T08:14:00.862Z,51.87
2022-09-21T08:16:30.829Z,51.44
2022-09-21T08:18:57.532Z,51.20
2022-09-21T08:21:24.129Z,51.37
2022-09-21T08:23:50.688Z,51.52
2022-09-21T08:26:19.679Z,51.99
2022-09-21T08:28:51.744Z,52.27
2022-09-21T08:31:20.657Z,51.76
2022-09-21T08:34:09.677Z,51.01
2022-09-21T08:37:19.783Z,51.44
2022-09-21T08:39:46.322Z,51.10
2022-09-21T08:42:36.590Z,50.96
2022-09-21T08:45:10.148Z,50.70
2022-09-21T08:47:46.901Z,50.45
2022-09-21T08:50:29.022Z,50.03
2022-09-21T08:53:16.652Z,48.78
2022-09-21T08:55:43.220Z,49.39
2022-09-21T08:58:22.864Z,48.83
2022-09-21T09:01:16.009Z,48.97
2022-09-21T09:04:07.322Z,49.04
2022-09-21T09:06:43.239Z,49.23
2022-09-21T09:13:08.930Z,50.98
2022-09-21T09:15:50.279Z,48.96
2022-09-21T09:18:43.519Z,49.46
2022-09-21T09:21:14.706Z,49.98
2022-09-21T09:23:46.917Z,46.04
2022-09-21T09:26:25.399Z,46.29
2022-09-21T09:28:58.738Z,46.72
2022-09-21T09:31:34.707Z,45.67
2022-09-21T09:34:13.263Z,46.63
2022-09-21T09:36:58.432Z,47.53
2022-09-21T09:39:28.425Z,48.17
2022-09-21T09:42:00.780Z,45.96
2022-09-21T09:44:30.722Z,45.09
2022-09-21T09:47:28.265Z,46.69
2022-09-21T09:50:10.655Z,47.28
2022-09-21T09:52:37.671Z,49.31
2022-09-21T09:55:41.190Z,46.43
2022-09-21T09:58:16.056Z,47.28
2022-09-21T10:00:43.125Z,45.52
2022-09-21T10:03:18.358Z,45.81
2022-09-21T10:05:45.669Z,45.16
2022-09-21T10:08:36.806Z,44.99
2022-09-21T10:11:04.403Z,44.66
2022-09-21T10:13:34.362Z,44.88
2022-09-21T10:16:05.375Z,44.44
2022-09-21T10:18:34.902Z,43.47
2022-09-21T10:21:08.950Z,44.35
2022-09-21T10:23:37.229Z,44.16
2022-09-21T10:26:13.701Z,42.83
2022-09-21T10:29:00.682Z,43.16
2022-09-21T10:31:29.987Z,46.50
2022-09-21T10:34:02.693Z,45.38
2022-09-21T10:36:35.508Z,44.17
2022-09-21T10:39:21.876Z,44.24
2022-09-21T10:41:52.205Z,44.53
2022-09-21T10:44:21.501Z,44.36
2022-09-21T10:46:50.583Z,44.52
2022-09-21T10:49:23.457Z,43.46
2022-09-21T10:51:50.992Z,43.12
2022-09-21T10:54:23.251Z,42.28
2022-09-21T10:56:56.061Z,42.75
2022-09-21T10:59:24.498Z,42.61
2022-09-21T11:01:53.966Z,42.24
2022-09-21T11:04:20.788Z,42.22
2022-09-21T11:06:55.105Z,42.35
2022-09-21T11:09:33.993Z,42.64
2022-09-21T11:12:25.102Z,42.62
2022-09-21T11:15:13.900Z,44.21
2022-09-21T11:17:47.353Z,43.49
2022-09-21T11:20:29.037Z,43.03
2022-09-21T11:23:28.073Z,43.03
2022-09-21T11:26:00.802Z,42.93
2022-09-21T11:29:06.956Z,41.41
2022-09-21T11:32:05.909Z,40.93
2022-09-21T11:34:48.263Z,40.93
2022-09-21T11:37:26.666Z,41.47
2022-09-21T11:40:10.999Z,40.72
2022-09-21T11:46:13.805Z,40.67
2022-09-21T11:48:52.251Z,41.86
2022-09-21T11:52:03.469Z,41.67
2022-09-21T11:54:46.916Z,41.10
2022-09-21T11:57:31.137Z,45.06
2022-09-21T12:00:17.715Z,41.10
2022-09-21T12:03:27.094Z,40.53
2022-09-21T12:06:12.012Z,40.05
2022-09-21T12:09:15.908Z,41.54
2022-09-21T12:11:49.489Z,38.58
2022-09-21T12:14:42.683Z,37.93
2022-09-21T12:21:11.894Z,38.45
2022-09-21T12:23:53.711Z,39.46
2022-09-21T12:26:27.272Z,37.92
2022-09-21T12:29:01.038Z,38.68
2022-09-21T12:31:39.868Z,37.71
2022-09-21T12:34:19.871Z,37.68
2022-09-21T12:37:25.512Z,39.63
2022-09-21T12:40:02.796Z,39.60
2022-09-21T12:42:42.083Z,40.22
2022-09-21T12:45:17.645Z,40.17
2022-09-21T12:47:52.460Z,40.29
2022-09-21T12:50:48.547Z,40.17
2022-09-21T12:53:19.724Z,39.28
2022-09-21T12:56:13.323Z,39.75
2022-09-21T12:58:50.745Z,40.42
2022-09-21T13:01:32.725Z,40.55
2022-09-21T13:03:59.347Z,40.41
2022-09-21T13:06:29.374Z,40.79
2022-09-21T13:08:57.347Z,39.78
2022-09-21T13:11:24.327Z,39.71
2022-09-21T13:13:58.467Z,39.28
2022-09-21T13:16:31.489Z,39.26
2022-09-21T13:19:25.444Z,38.56
2022-09-21T13:22:21.126Z,38.84
2022-09-21T13:25:03.378Z,38.84
2022-09-21T13:28:03.868Z,38.85
2022-09-21T13:30:32.021Z,39.50
2022-09-21T13:32:58.949Z,40.53
2022-09-21T13:35:52.907Z,40.91
2022-09-21T13:38:34.475Z,40.19
2022-09-21T13:41:03.899Z,40.38
2022-09-21T13:44:06.095Z,40.41
2022-09-21T13:46:36.005Z,40.64
2022-09-21T13:49:26.931Z,40.19
2022-09-21T13:52:15.724Z,40.40
2022-09-21T13:54:45.228Z,40.26
2022-09-21T13:57:34.793Z,39.20
2022-09-21T14:00:13.625Z,39.41
2022-09-21T14:02:49.542Z,39.29
2022-09-21T14:05:28.364Z,38.58
2022-09-21T14:08:01.523Z,38.95
2022-09-21T14:10:32.094Z,39.16
2022-09-21T14:13:01.183Z,38.48
2022-09-21T14:15:39.695Z,39.09
2022-09-21T14:18:16.295Z,39.63
2022-09-21T14:21:21.987Z,40.14
2022-09-21T14:24:07.737Z,39.18
2022-09-21T14:26:40.695Z,39.86
2022-09-21T14:29:29.635Z,40.56
2022-09-21T14:32:04.415Z,40.52
2022-09-21T14:34:36.962Z,41.00
2022-09-21T14:37:20.234Z,40.67
2022-09-21T14:39:49.042Z,40.43
2022-09-21T14:42:20.143Z,40.38
2022-09-21T14:44:51.387Z,40.32
2022-09-21T14:47:17.998Z,40.37
2022-09-21T14:50:05.545Z,39.28
2022-09-21T14:52:33.088Z,38.84
2022-09-21T14:55:35.312Z,39.12
2022-09-21T14:58:24.883Z,39.31
2022-09-21T15:00:53.321Z,39.85
2022-09-21T15:03:28.773Z,39.49
2022-09-21T15:06:24.199Z,39.78
2022-09-21T15:09:21.747Z,38.98
2022-09-21T15:11:59.333Z,38.89
2022-09-21T15:14:37.122Z,39.41
2022-09-21T15:17:24.258Z,39.07
2022-09-21T15:19:51.354Z,39.30
2022-09-21T15:22:21.013Z,38.72
2022-09-21T15:24:59.433Z,39.05
2022-09-21T15:27:33.748Z,39.65
2022-09-21T15:30:04.465Z,40.02
2022-09-21T15:32:31.238Z,40.10
2022-09-21T15:35:01.459Z,41.01
2022-09-21T15:37:29.549Z,40.25
2022-09-21T15:40:01.902Z,40.13
2022-09-21T15:42:30.098Z,42.66
2022-09-21T15:45:15.380Z,41.53
2022-09-21T15:47:45.033Z,39.81
2022-09-21T15:50:13.311Z,39.78
2022-09-21T15:52:45.749Z,40.18
2022-09-21T15:55:21.917Z,40.06
2022-09-21T15:57:56.322Z,40.13
2022-09-21T16:00:31.885Z,40.29
2022-09-21T16:03:06.156Z,40.17
2022-09-21T16:05:47.543Z,40.22
2022-09-21T16:08:28.402Z,39.88
2022-09-21T16:11:11.010Z,40.25
2022-09-21T16:13:56.445Z,40.37
2022-09-21T16:16:23.075Z,40.08
2022-09-21T16:18:55.368Z,40.49
2022-09-21T16:21:29.286Z,40.61
2022-09-21T16:23:58.438Z,40.97
2022-09-21T16:26:35.133Z,41.18
2022-09-21T16:29:43.080Z,41.60
2022-09-21T16:32:18.973Z,41.81
2022-09-21T16:34:46.355Z,41.98
2022-09-21T16:37:24.559Z,41.97
2022-09-21T16:39:52.978Z,41.97
2022-09-21T16:42:21.046Z,42.76
2022-09-21T16:44:48.499Z,42.44
2022-09-21T16:47:22.773Z,43.39
2022-09-21T16:49:49.317Z,43.71
2022-09-21T16:52:17.005Z,44.00
2022-09-21T16:54:43.608Z,44.48
2022-09-21T16:57:12.489Z,44.23
2022-09-21T16:59:39.041Z,44.34
2022-09-21T17:02:05.987Z,43.80
2022-09-21T17:04:34.994Z,44.95
2022-09-21T17:07:04.982Z,45.27
2022-09-21T17:09:38.483Z,45.35
2022-09-21T17:12:07.797Z,45.59
2022-09-21T17:14:36.248Z,45.08
2022-09-21T17:17:13.332Z,44.92
2022-09-21T17:19:42.189Z,45.49
2022-09-21T17:22:17.614Z,45.51
2022-09-21T17:24:51.821Z,45.27
2022-09-21T17:27:29.331Z,45.39
2022-09-21T17:29:56.494Z,45.46
2022-09-21T17:32:24.782Z,45.96
2022-09-21T17:35:11.766Z,45.90
2022-09-21T17:37:38.337Z,46.18
2022-09-21T17:40:10.510Z,46.03
2022-09-21T17:42:41.532Z,45.81
2022-09-21T17:45:29.476Z,45.72
2022-09-21T17:47:56.388Z,46.13
2022-09-21T17:50:27.002Z,46.14
2022-09-21T17:53:14.260Z,46.27
2022-09-21T17:55:48.400Z,45.78
2022-09-21T17:58:57.010Z,45.91
2022-09-21T18:01:37.041Z,45.74
2022-09-21T18:04:04.664Z,45.87
2022-09-21T18:06:31.726Z,45.92
2022-09-21T18:08:58.707Z,46.04
2022-09-21T18:11:34.261Z,45.72
2022-09-21T18:14:19.116Z,46.01
2022-09-21T18:17:11.181Z,46.66
2022-09-21T18:20:11.997Z,47.16
2022-09-21T18:23:06.672Z,47.58
2022-09-21T18:25:36.247Z,47.10
2022-09-21T18:28:12.795Z,47.71
2022-09-21T18:30:45.619Z,47.70
2022-09-21T18:33:53.770Z,47.93
2022-09-21T18:36:36.966Z,47.74
2022-09-21T18:39:22.316Z,47.78
2022-09-21T18:42:13.568Z,48.13
2022-09-21T18:48:13.264Z,48.98
2022-09-21T18:51:06.099Z,49.42
2022-09-21T18:56:08.488Z,49.68
2022-09-21T18:58:36.016Z,49.93
2022-09-21T19:01:04.104Z,50.48
2022-09-21T19:03:31.495Z,50.62
2022-09-21T19:06:01.047Z,50.79
2022-09-21T19:08:43.509Z,50.56
2022-09-21T19:11:52.078Z,50.74
2022-09-21T19:14:43.923Z,50.71
2022-09-21T19:17:13.527Z,51.15
2022-09-21T19:20:10.212Z,51.38
2022-09-21T19:23:07.448Z,51.30
2022-09-21T19:25:48.698Z,51.33
2022-09-21T19:28:53.446Z,51.49
2022-09-21T19:31:20.482Z,51.75
2022-09-21T19:33:50.743Z,52.27
2022-09-21T19:36:18.937Z,52.07
2022-09-21T19:38:45.730Z,52.25
2022-09-21T19:42:07.502Z,52.60
2022-09-21T19:44:34.570Z,52.83
2022-09-21T19:47:29.291Z,52.92
2022-09-21T19:50:04.512Z,52.97
2022-09-21T19:52:36.249Z,52.96
2022-09-21T19:55:22.604Z,52.80
2022-09-21T19:58:08.348Z,52.54
2022-09-21T20:00:36.405Z,52.50
2022-09-21T20:03:14.126Z,52.37
2022-09-21T20:05:54.920Z,52.43
2022-09-21T20:08:28.508Z,52.78
2022-09-21T20:11:13.656Z,52.70
2022-09-21T20:14:12.292Z,52.63
2022-09-21T20:16:59.297Z,52.75
2022-09-21T20:19:32.015Z,52.83
2022-09-21T20:22:04.989Z,52.70
2022-09-21T20:24:34.458Z,52.72
2022-09-21T20:27:03.101Z,52.62
2022-09-21T20:29:29.637Z,52.39
2022-09-21T20:31:56.321Z,52.54
2022-09-21T20:34:22.918Z,52.44
2022-09-21T20:36:49.485Z,52.70
2022-09-21T20:39:16.249Z,52.67
2022-09-21T20:41:42.872Z,53.51
2022-09-21T20:44:22.057Z,53.36
2022-09-21T20:46:48.583Z,53.41
2022-09-21T20:49:16.096Z,54.17
2022-09-21T20:51:42.867Z,53.79
2022-09-21T20:54:09.466Z,53.96
2022-09-21T20:56:35.994Z,54.10
2022-09-21T20:59:13.227Z,54.09
2022-09-21T21:02:04.467Z,54.14
2022-09-21T21:04:32.465Z,54.49
2022-09-21T21:06:59.477Z,54.96
2022-09-21T21:09:26.520Z,54.73
2022-09-21T21:11:53.074Z,54.24
2022-09-21T21:14:19.653Z,54.30
2022-09-21T21:19:27.281Z,54.58
2022-09-21T21:21:53.817Z,54.62
2022-09-21T21:24:39.010Z,54.87
2022-09-21T21:27:06.343Z,55.00
2022-09-21T21:29:33.192Z,54.73
2022-09-21T21:32:00.607Z,54.77
2022-09-21T21:35:14.446Z,54.69
2022-09-21T21:37:50.151Z,55.39
2022-09-21T21:40:17.062Z,55.45
2022-09-21T21:42:43.696Z,55.21
2022-09-21T21:45:10.954Z,54.93
2022-09-21T21:47:40.617Z,54.65
2022-09-21T21:50:08.521Z,54.38
2022-09-21T21:52:35.068Z,54.38
2022-09-21T21:55:02.413Z,54.26
2022-09-21T21:57:29.136Z,53.94
2022-09-21T21:59:55.710Z,53.93
2022-09-21T22:02:22.389Z,53.76
2022-09-21T22:04:49.042Z,53.87
2022-09-21T22:07:33.864Z,54.48
2022-09-21T22:10:00.453Z,54.10
2022-09-21T22:12:27.019Z,54.48
2022-09-21T22:14:53.589Z,54.54
2022-09-21T22:17:20.467Z,54.62
2022-09-21T22:19:47.109Z,54.51
2022-09-21T22:22:32.045Z,54.36
2022-09-21T22:25:48.224Z,54.18
2022-09-21T22:28:23.905Z,54.27
2022-09-21T22:30:50.673Z,54.57
2022-09-21T22:33:17.829Z,54.49
2022-09-21T22:35:44.388Z,54.50
2022-09-21T22:38:11.943Z,54.54
2022-09-21T22:40:38.621Z,55.38
2022-09-21T22:43:05.176Z,55.09
2022-09-21T22:45:31.991Z,54.89
2022-09-21T22:47:58.604Z,54.62
2022-09-21T22:50:25.156Z,55.01
2022-09-21T22:52:51.700Z,55.27
2022-09-21T22:55:18.293Z,55.11
2022-09-21T22:57:53.811Z,55.00
2022-09-21T23:00:20.348Z,54.65
2022-09-21T23:02:52.843Z,54.41
2022-09-21T23:05:19.391Z,55.17
2022-09-21T23:07:50.730Z,55.61
2022-09-21T23:10:17.749Z,54.96
2022-09-21T23:13:31.372Z,55.13
2022-09-21T23:16:20.201Z,55.21
2022-09-21T23:18:48.514Z,55.23
2022-09-21T23:21:18.231Z,54.69
2022-09-21T23:23:45.232Z,54.99
2022-09-21T23:26:13.372Z,54.39
2022-09-21T23:28:41.994Z,54.22
2022-09-21T23:31:29.495Z,54.33
2022-09-21T23:33:59.262Z,54.37
2022-09-21T23:36:30.837Z,54.36
2022-09-21T23:38:58.004Z,54.38
2022-09-21T23:41:30.822Z,54.07
2022-09-21T23:43:58.312Z,54.17
2022-09-21T23:47:02.034Z,54.24
2022-09-21T23:52:32.075Z,54.32
2022-09-21T23:54:58.645Z,54.25
2022-09-21T23:57:25.189Z,54.33
2022-09-21T23:59:52.824Z,54.57
